createdAt,value
2023-03-10T00:00:01.998Z,1
2023-03-10T00:05:01.516Z,2
2023-03-10T00:10:01.895Z,2
2023-03-10T00:15:02.283Z,1
2023-03-10T00:20:02.131Z,1
2023-03-10T00:25:01.624Z,2
2023-03-10T00:30:01.981Z,1
2023-03-10T00:35:01.357Z,1
2023-03-10T00:40:01.757Z,1
2023-03-10T00:45:02.120Z,1
2023-03-10T00:50:01.476Z,1
2023-03-10T00:55:01.847Z,1
2023-03-10T01:00:02.661Z,1
2023-03-10T01:05:02.039Z,1
2023-03-10T01:10:01.468Z,1
2023-03-10T01:15:01.857Z,1
2023-03-10T01:20:02.422Z,2
2023-03-10T01:25:02.212Z,0
2023-03-10T01:30:02.021Z,7
2023-03-10T01:35:01.371Z,1
2023-03-10T01:40:01.764Z,1
2023-03-10T01:45:02.568Z,2
2023-03-10T01:50:01.960Z,1
2023-03-10T01:55:01.339Z,1
2023-03-10T02:00:01.718Z,1
2023-03-10T02:05:02.078Z,1
2023-03-10T02:10:01.516Z,1
2023-03-10T02:15:01.910Z,1
2023-03-10T02:20:01.325Z,1
2023-03-10T02:25:01.704Z,1
2023-03-10T02:30:02.246Z,2
2023-03-10T02:35:01.750Z,1
2023-03-10T02:40:02.184Z,1
2023-03-10T02:45:01.578Z,1
2023-03-10T02:50:01.946Z,1
2023-03-10T02:55:02.315Z,0
2023-03-10T03:00:01.681Z,1
2023-03-10T03:05:02.483Z,1
2023-03-10T03:10:01.891Z,1
2023-03-10T03:15:02.439Z,1
2023-03-10T03:20:01.869Z,1
2023-03-10T03:25:02.234Z,1
2023-03-10T03:30:01.614Z,2
2023-03-10T03:35:01.973Z,1
2023-03-10T03:40:02.104Z,1
2023-03-10T03:45:01.513Z,0
2023-03-10T03:50:01.873Z,1
2023-03-10T03:55:02.248Z,1
2023-03-10T04:00:01.632Z,1
2023-03-10T04:05:02.028Z,1
2023-03-10T04:10:01.428Z,0
2023-03-10T04:15:01.813Z,1
2023-03-10T04:20:07.510Z,1
2023-03-10T04:25:01.349Z,1
2023-03-10T04:30:01.709Z,0
2023-03-10T04:35:02.530Z,1
2023-03-10T04:40:02.366Z,0
2023-03-10T04:45:01.874Z,0
2023-03-10T04:50:02.668Z,1
2023-03-10T04:55:02.042Z,0
2023-03-10T05:00:03.127Z,0
2023-03-10T05:05:01.864Z,0
2023-03-10T05:10:02.272Z,1
2023-03-10T05:15:01.651Z,1
2023-03-10T05:20:02.038Z,1
2023-03-10T05:25:01.406Z,0
2023-03-10T05:30:01.887Z,1
2023-03-10T05:35:02.284Z,4
2023-03-10T05:40:02.120Z,0
2023-03-10T05:45:01.922Z,1
2023-03-10T05:50:02.274Z,0
2023-03-10T05:55:01.663Z,1
2023-03-10T06:00:02.059Z,0
2023-03-10T06:05:01.422Z,1
2023-03-10T06:10:01.817Z,1
2023-03-10T06:15:02.199Z,0
2023-03-10T06:20:02.075Z,1
2023-03-10T06:25:01.592Z,0
2023-03-10T06:30:01.965Z,1
2023-03-10T06:35:01.765Z,1
2023-03-10T06:40:02.166Z,1
2023-03-10T06:45:01.534Z,1
2023-03-10T06:50:01.921Z,0
2023-03-10T06:55:02.434Z,1
2023-03-10T07:00:02.358Z,0
2023-03-10T07:05:01.802Z,1
2023-03-10T07:10:02.241Z,2
2023-03-10T07:15:01.649Z,0
2023-03-10T07:20:02.048Z,1
2023-03-10T07:25:01.859Z,0
2023-03-10T07:30:02.377Z,0
2023-03-10T07:35:01.748Z,0
2023-03-10T07:40:02.254Z,1
2023-03-10T07:45:01.766Z,1
2023-03-10T07:50:02.265Z,0
2023-03-10T07:55:01.776Z,1
2023-03-10T08:00:02.345Z,1
2023-03-10T08:05:01.793Z,1
2023-03-10T08:10:01.332Z,1
2023-03-10T08:15:01.721Z,1
2023-03-10T08:20:02.597Z,1
2023-03-10T08:25:01.976Z,0
2023-03-10T08:30:01.343Z,0
2023-03-10T08:35:01.762Z,0
2023-03-10T08:40:02.627Z,1
2023-03-10T08:45:02.492Z,0
2023-03-10T08:50:02.038Z,0
2023-03-10T08:55:01.530Z,0
2023-03-10T09:00:02.046Z,1
2023-03-10T09:05:01.851Z,1
2023-03-10T09:10:02.414Z,0
2023-03-10T09:15:01.943Z,1
2023-03-10T09:20:01.532Z,0
2023-03-10T09:25:01.905Z,0
2023-03-10T09:30:02.711Z,2
2023-03-10T09:35:02.095Z,0
2023-03-10T09:40:01.523Z,0
2023-03-10T09:45:02.376Z,0
2023-03-10T09:50:02.168Z,0
2023-03-10T09:55:01.548Z,1
2023-03-10T10:00:01.966Z,0
2023-03-10T10:05:03.877Z,0
2023-03-10T10:10:01.573Z,0
2023-03-10T10:15:01.951Z,16
2023-03-10T10:20:01.404Z,20
2023-03-10T10:25:01.791Z,12
2023-03-10T10:30:02.281Z,9
2023-03-10T10:35:01.687Z,8
2023-03-10T10:40:02.283Z,4
2023-03-10T10:45:01.786Z,3
2023-03-10T10:50:02.160Z,3
2023-03-10T10:55:01.542Z,4
2023-03-10T11:00:02.046Z,4
2023-03-10T11:05:01.594Z,2
2023-03-10T11:10:02.160Z,2
2023-03-10T11:15:01.555Z,2
2023-03-10T11:20:01.975Z,2
2023-03-10T11:25:01.802Z,3
2023-03-10T11:30:02.173Z,4
2023-03-10T11:35:01.680Z,0
2023-03-10T11:40:02.197Z,1
2023-03-10T11:45:02.013Z,3
2023-03-10T11:50:01.383Z,2
2023-03-10T11:55:01.797Z,2
2023-03-10T12:00:02.200Z,2
2023-03-10T12:05:02.109Z,2
2023-03-10T12:10:01.930Z,2
2023-03-10T12:15:02.725Z,2
2023-03-10T12:20:02.345Z,3
2023-03-10T12:25:01.726Z,2
2023-03-10T12:30:02.134Z,2
2023-03-10T12:35:01.663Z,4
2023-03-10T12:40:02.497Z,2
2023-03-10T12:45:01.948Z,2
2023-03-10T12:50:01.352Z,2
2023-03-10T12:55:01.727Z,2
2023-03-10T13:00:02.285Z,3
2023-03-10T13:05:01.799Z,1
2023-03-10T13:10:02.630Z,2
2023-03-10T13:15:02.486Z,1
2023-03-10T13:20:01.934Z,3
2023-03-10T13:25:02.320Z,2
2023-03-10T13:30:01.711Z,3
2023-03-10T13:35:02.206Z,2
2023-03-10T13:40:01.620Z,2
2023-03-10T13:45:02.116Z,2
2023-03-10T13:50:01.492Z,3
2023-03-10T13:55:01.931Z,2
2023-03-10T14:00:01.826Z,2
2023-03-10T14:05:02.384Z,3
2023-03-10T14:10:02.228Z,2
2023-03-10T14:15:01.736Z,2
2023-03-10T14:20:02.310Z,3
2023-03-10T14:25:01.693Z,2
2023-03-10T14:30:02.225Z,2
2023-03-10T14:35:02.008Z,3
2023-03-10T14:40:01.425Z,2
2023-03-10T14:45:01.962Z,1
2023-03-10T14:50:01.375Z,1
2023-03-10T14:55:01.945Z,2
2023-03-10T15:00:01.443Z,2
2023-03-10T15:05:02.106Z,2
2023-03-10T15:10:11.163Z,2
2023-03-10T15:15:02.461Z,1
2023-03-10T15:20:01.909Z,2
2023-03-10T15:25:02.398Z,1
2023-03-10T15:30:01.792Z,2
2023-03-10T15:35:02.286Z,2
2023-03-10T15:40:01.696Z,2
2023-03-10T15:45:02.077Z,1
2023-03-10T15:50:01.879Z,1
2023-03-10T15:55:02.367Z,0
2023-03-10T16:00:01.912Z,0
2023-03-10T16:05:02.623Z,1
2023-03-10T16:10:02.224Z,1
2023-03-10T16:15:01.599Z,1
2023-03-10T16:20:02.162Z,2
2023-03-10T16:25:01.705Z,0
2023-03-10T16:30:02.316Z,1
2023-03-10T16:35:01.878Z,1
2023-03-10T16:40:02.281Z,0
2023-03-10T16:45:01.693Z,0
2023-03-10T16:50:02.567Z,0
2023-03-10T16:55:02.005Z,0
2023-03-10T17:00:01.506Z,1
2023-03-10T17:05:01.876Z,1
2023-03-10T17:10:02.837Z,0
2023-03-10T17:15:02.394Z,0
2023-03-10T17:20:02.511Z,1
2023-03-10T17:25:02.375Z,1
2023-03-10T17:30:01.869Z,0
2023-03-10T17:35:01.453Z,0
2023-03-10T17:40:02.024Z,0
2023-03-10T17:45:01.389Z,0
2023-03-10T17:50:01.862Z,1
2023-03-10T17:55:02.256Z,0
2023-03-10T18:00:01.786Z,1
2023-03-10T18:05:02.292Z,1
2023-03-10T18:10:01.684Z,3
2023-03-10T18:15:02.180Z,1
2023-03-10T18:20:01.642Z,0
2023-03-10T18:25:02.034Z,1
2023-03-10T18:30:01.410Z,0
2023-03-10T18:35:01.782Z,1
2023-03-10T18:40:02.194Z,1
2023-03-10T18:45:02.018Z,1
2023-03-10T18:50:01.511Z,0
2023-03-10T18:55:02.008Z,0
2023-03-10T19:00:01.431Z,1
2023-03-10T19:05:01.812Z,0
2023-03-10T19:10:02.349Z,1
2023-03-10T19:15:01.856Z,1
2023-03-10T19:20:01.376Z,1
2023-03-10T19:25:01.898Z,0
2023-03-10T19:30:02.270Z,1
2023-03-10T19:35:01.747Z,1
2023-03-10T19:40:02.325Z,0
2023-03-10T19:45:01.846Z,0
2023-03-10T19:50:02.648Z,1
2023-03-10T19:55:02.116Z,4
2023-03-10T20:00:01.529Z,2
2023-03-10T20:05:02.454Z,0
2023-03-10T20:10:01.861Z,0
2023-03-10T20:15:02.260Z,0
2023-03-10T20:20:01.757Z,0
2023-03-10T20:25:02.598Z,1
2023-03-10T20:30:01.975Z,1
2023-03-10T20:35:01.352Z,1
2023-03-10T20:40:01.881Z,0
2023-03-10T20:45:02.426Z,0
2023-03-10T20:50:01.798Z,0
2023-03-10T20:55:02.169Z,0
2023-03-10T21:00:01.710Z,1
2023-03-10T21:05:02.222Z,0
2023-03-10T21:10:01.621Z,0
2023-03-10T21:15:02.011Z,1
2023-03-10T21:20:01.453Z,1
2023-03-10T21:25:01.838Z,0
2023-03-10T21:30:02.217Z,0
2023-03-10T21:35:01.580Z,0
2023-03-10T21:40:02.014Z,1
2023-03-10T21:45:01.519Z,0
2023-03-10T21:50:01.885Z,1
2023-03-10T21:55:02.269Z,2
2023-03-10T22:00:02.097Z,0
2023-03-10T22:05:01.892Z,0
2023-03-10T22:10:02.433Z,1
2023-03-10T22:15:01.851Z,0
2023-03-10T22:20:01.720Z,1
2023-03-10T22:25:02.228Z,0
2023-03-10T22:30:01.629Z,0
2023-03-10T22:35:02.459Z,0
2023-03-10T22:40:02.002Z,0
2023-03-10T22:45:01.817Z,1
2023-03-10T22:50:02.369Z,0
2023-03-10T22:55:01.864Z,1
2023-03-10T23:00:02.343Z,1
2023-03-10T23:05:02.097Z,0
2023-03-10T23:10:01.630Z,0
2023-03-10T23:15:05.108Z,1
2023-03-10T23:20:02.024Z,0
2023-03-10T23:25:01.432Z,1
2023-03-10T23:30:01.915Z,0
2023-03-10T23:35:02.270Z,0
2023-03-10T23:40:01.692Z,0
2023-03-10T23:45:02.074Z,0
2023-03-10T23:50:01.422Z,0
2023-03-10T23:55:02.207Z,0
